sensor_id;sensor_type;location;lat;lon;timestamp;P1;durP1;ratioP1;P2;durP2;ratioP2
27893;SDS011;15240;50.812;4.792;2022-11-18T00:03:32;9.47;;;2.50;;
27893;SDS011;15240;50.812;4.792;2022-11-18T00:05:59;5.23;;;2.10;;
27893;SDS011;15240;50.812;4.792;2022-11-18T00:08:25;3.87;;;2.27;;
27893;SDS011;15240;50.812;4.792;2022-11-18T00:10:51;6.43;;;2.50;;
27893;SDS011;15240;50.812;4.792;2022-11-18T00:13:18;5.00;;;2.30;;
27893;SDS011;15240;50.812;4.792;2022-11-18T00:16:04;6.03;;;2.27;;
27893;SDS011;15240;50.812;4.792;2022-11-18T00:18:31;7.97;;;2.43;;
27893;SDS011;15240;50.812;4.792;2022-11-18T00:21:04;6.20;;;2.73;;
27893;SDS011;15240;50.812;4.792;2022-11-18T00:23:30;6.37;;;2.50;;
27893;SDS011;15240;50.812;4.792;2022-11-18T00:26:06;4.70;;;2.27;;
27893;SDS011;15240;50.812;4.792;2022-11-18T00:28:33;8.03;;;3.20;;
27893;SDS011;15240;50.812;4.792;2022-11-18T00:31:04;7.73;;;2.60;;
27893;SDS011;15240;50.812;4.792;2022-11-18T00:33:30;7.00;;;2.50;;
27893;SDS011;15240;50.812;4.792;2022-11-18T00:35:57;6.47;;;2.30;;
27893;SDS011;15240;50.812;4.792;2022-11-18T00:38:23;9.00;;;2.50;;
27893;SDS011;15240;50.812;4.792;2022-11-18T00:40:57;9.43;;;2.40;;
27893;SDS011;15240;50.812;4.792;2022-11-18T00:43:23;7.23;;;2.80;;
27893;SDS011;15240;50.812;4.792;2022-11-18T00:45:49;8.23;;;2.50;;
27893;SDS011;15240;50.812;4.792;2022-11-18T00:48:15;6.37;;;2.30;;
27893;SDS011;15240;50.812;4.792;2022-11-18T00:50:45;8.40;;;2.77;;
27893;SDS011;15240;50.812;4.792;2022-11-18T00:53:11;3.77;;;2.10;;
27893;SDS011;15240;50.812;4.792;2022-11-18T00:55:37;8.50;;;2.67;;
27893;SDS011;15240;50.812;4.792;2022-11-18T00:58:04;11.90;;;2.70;;
27893;SDS011;15240;50.812;4.792;2022-11-18T01:00:30;7.37;;;2.30;;
27893;SDS011;15240;50.812;4.792;2022-11-18T01:02:56;8.60;;;2.70;;
27893;SDS011;15240;50.812;4.792;2022-11-18T01:05:22;6.60;;;2.30;;
27893;SDS011;15240;50.812;4.792;2022-11-18T01:07:48;7.53;;;2.90;;
27893;SDS011;15240;50.812;4.792;2022-11-18T01:10:15;5.13;;;2.60;;
27893;SDS011;15240;50.812;4.792;2022-11-18T01:12:41;8.40;;;2.57;;
27893;SDS011;15240;50.812;4.792;2022-11-18T01:15:26;6.03;;;2.67;;
27893;SDS011;15240;50.812;4.792;2022-11-18T01:17:52;11.43;;;2.60;;
27893;SDS011;15240;50.812;4.792;2022-11-18T01:20:18;10.23;;;2.67;;
27893;SDS011;15240;50.812;4.792;2022-11-18T01:22:44;7.67;;;3.00;;
27893;SDS011;15240;50.812;4.792;2022-11-18T01:25:10;5.40;;;2.43;;
27893;SDS011;15240;50.812;4.792;2022-11-18T01:27:36;6.23;;;2.40;;
27893;SDS011;15240;50.812;4.792;2022-11-18T01:30:02;6.37;;;2.40;;
27893;SDS011;15240;50.812;4.792;2022-11-18T01:32:28;10.07;;;2.90;;
27893;SDS011;15240;50.812;4.792;2022-11-18T01:34:54;14.73;;;2.87;;
27893;SDS011;15240;50.812;4.792;2022-11-18T01:37:21;7.40;;;2.80;;
27893;SDS011;15240;50.812;4.792;2022-11-18T01:39:47;6.50;;;2.23;;
27893;SDS011;15240;50.812;4.792;2022-11-18T01:42:16;7.10;;;2.57;;
27893;SDS011;15240;50.812;4.792;2022-11-18T01:44:56;6.20;;;2.80;;
27893;SDS011;15240;50.812;4.792;2022-11-18T01:47:24;6.63;;;2.57;;
27893;SDS011;15240;50.812;4.792;2022-11-18T01:49:51;8.17;;;2.50;;
27893;SDS011;15240;50.812;4.792;2022-11-18T01:52:17;8.40;;;2.70;;
27893;SDS011;15240;50.812;4.792;2022-11-18T01:54:45;6.97;;;2.37;;
27893;SDS011;15240;50.812;4.792;2022-11-18T01:57:14;6.30;;;2.40;;
27893;SDS011;15240;50.812;4.792;2022-11-18T01:59:41;4.73;;;2.40;;
27893;SDS011;15240;50.812;4.792;2022-11-18T02:02:09;6.37;;;2.10;;
27893;SDS011;15240;50.812;4.792;2022-11-18T02:04:37;6.30;;;2.50;;
27893;SDS011;15240;50.812;4.792;2022-11-18T02:07:05;9.20;;;2.50;;
27893;SDS011;15240;50.812;4.792;2022-11-18T02:09:32;6.00;;;2.20;;
27893;SDS011;15240;50.812;4.792;2022-11-18T02:11:58;7.83;;;2.20;;
27893;SDS011;15240;50.812;4.792;2022-11-18T02:14:28;7.33;;;2.40;;
27893;SDS011;15240;50.812;4.792;2022-11-18T02:22:27;6.40;;;2.30;;
27893;SDS011;15240;50.812;4.792;2022-11-18T02:25:04;4.90;;;2.20;;
27893;SDS011;15240;50.812;4.792;2022-11-18T02:30:04;5.07;;;2.10;;
27893;SDS011;15240;50.812;4.792;2022-11-18T02:32:53;6.73;;;2.60;;
27893;SDS011;15240;50.812;4.792;2022-11-18T02:35:25;5.97;;;2.23;;
27893;SDS011;15240;50.812;4.792;2022-11-18T02:40:38;4.87;;;2.27;;
27893;SDS011;15240;50.812;4.792;2022-11-18T02:43:07;6.30;;;2.23;;
27893;SDS011;15240;50.812;4.792;2022-11-18T02:45:35;4.93;;;2.07;;
27893;SDS011;15240;50.812;4.792;2022-11-18T02:48:04;5.50;;;2.00;;
27893;SDS011;15240;50.812;4.792;2022-11-18T02:50:31;5.17;;;2.07;;
27893;SDS011;15240;50.812;4.792;2022-11-18T02:53:00;4.57;;;2.20;;
27893;SDS011;15240;50.812;4.792;2022-11-18T02:55:29;7.30;;;2.03;;
27893;SDS011;15240;50.812;4.792;2022-11-18T02:57:57;6.50;;;2.27;;
27893;SDS011;15240;50.812;4.792;2022-11-18T03:00:23;8.37;;;2.97;;
27893;SDS011;15240;50.812;4.792;2022-11-18T03:02:49;8.20;;;3.00;;
27893;SDS011;15240;50.812;4.792;2022-11-18T03:07:52;4.57;;;2.60;;
27893;SDS011;15240;50.812;4.792;2022-11-18T03:10:20;5.73;;;2.77;;
27893;SDS011;15240;50.812;4.792;2022-11-18T03:13:10;5.70;;;2.50;;
27893;SDS011;15240;50.812;4.792;2022-11-18T03:15:43;4.93;;;2.57;;
27893;SDS011;15240;50.812;4.792;2022-11-18T03:21:04;7.97;;;3.00;;
27893;SDS011;15240;50.812;4.792;2022-11-18T03:23:38;7.10;;;2.70;;
27893;SDS011;15240;50.812;4.792;2022-11-18T03:26:13;10.07;;;2.80;;
27893;SDS011;15240;50.812;4.792;2022-11-18T03:28:54;5.17;;;2.80;;
27893;SDS011;15240;50.812;4.792;2022-11-18T03:34:08;6.00;;;2.80;;
27893;SDS011;15240;50.812;4.792;2022-11-18T03:36:37;4.83;;;2.83;;
27893;SDS011;15240;50.812;4.792;2022-11-18T03:39:05;7.17;;;3.10;;
27893;SDS011;15240;50.812;4.792;2022-11-18T03:41:33;7.37;;;3.17;;
27893;SDS011;15240;50.812;4.792;2022-11-18T03:44:04;5.90;;;3.37;;
27893;SDS011;15240;50.812;4.792;2022-11-18T03:46:34;6.60;;;3.03;;
27893;SDS011;15240;50.812;4.792;2022-11-18T03:49:02;7.17;;;3.57;;
27893;SDS011;15240;50.812;4.792;2022-11-18T03:51:32;8.03;;;3.70;;
27893;SDS011;15240;50.812;4.792;2022-11-18T03:54:02;7.50;;;3.50;;
27893;SDS011;15240;50.812;4.792;2022-11-18T03:56:31;6.30;;;3.43;;
27893;SDS011;15240;50.812;4.792;2022-11-18T03:59:08;8.73;;;3.50;;
27893;SDS011;15240;50.812;4.792;2022-11-18T04:01:52;5.60;;;3.10;;
27893;SDS011;15240;50.812;4.792;2022-11-18T04:04:20;6.97;;;4.03;;
27893;SDS011;15240;50.812;4.792;2022-11-18T04:06:48;7.37;;;3.80;;
27893;SDS011;15240;50.812;4.792;2022-11-18T04:09:19;12.30;;;4.20;;
27893;SDS011;15240;50.812;4.792;2022-11-18T04:11:48;7.27;;;4.00;;
27893;SDS011;15240;50.812;4.792;2022-11-18T04:14:27;8.70;;;3.77;;
27893;SDS011;15240;50.812;4.792;2022-11-18T04:16:54;7.37;;;4.03;;
27893;SDS011;15240;50.812;4.792;2022-11-18T04:19:20;8.23;;;4.23;;
27893;SDS011;15240;50.812;4.792;2022-11-18T04:21:46;7.80;;;4.03;;
27893;SDS011;15240;50.812;4.792;2022-11-18T04:24:13;7.73;;;4.07;;
27893;SDS011;15240;50.812;4.792;2022-11-18T04:26:39;8.60;;;4.17;;
27893;SDS011;15240;50.812;4.792;2022-11-18T04:29:05;7.67;;;4.00;;
27893;SDS011;15240;50.812;4.792;2022-11-18T04:31:31;8.17;;;4.60;;
27893;SDS011;15240;50.812;4.792;2022-11-18T04:33:57;8.63;;;4.07;;
27893;SDS011;15240;50.812;4.792;2022-11-18T04:36:23;7.13;;;3.77;;
27893;SDS011;15240;50.812;4.792;2022-11-18T04:38:49;9.17;;;4.20;;
27893;SDS011;15240;50.812;4.792;2022-11-18T04:41:15;8.67;;;3.77;;
27893;SDS011;15240;50.812;4.792;2022-11-18T04:43:41;8.10;;;4.23;;
27893;SDS011;15240;50.812;4.792;2022-11-18T04:46:07;6.63;;;4.23;;
27893;SDS011;15240;50.812;4.792;2022-11-18T04:48:33;8.13;;;4.00;;
27893;SDS011;15240;50.812;4.792;2022-11-18T04:51:03;10.07;;;4.00;;
27893;SDS011;15240;50.812;4.792;2022-11-18T04:53:29;10.23;;;4.60;;
27893;SDS011;15240;50.812;4.792;2022-11-18T04:55:55;7.83;;;4.13;;
27893;SDS011;15240;50.812;4.792;2022-11-18T04:58:22;8.27;;;4.40;;
27893;SDS011;15240;50.812;4.792;2022-11-18T05:00:49;10.90;;;4.50;;
27893;SDS011;15240;50.812;4.792;2022-11-18T05:03:15;8.53;;;4.30;;
27893;SDS011;15240;50.812;4.792;2022-11-18T05:05:41;8.47;;;4.37;;
27893;SDS011;15240;50.812;4.792;2022-11-18T05:08:07;11.17;;;4.70;;
27893;SDS011;15240;50.812;4.792;2022-11-18T05:10:33;9.57;;;4.50;;
27893;SDS011;15240;50.812;4.792;2022-11-18T05:12:59;8.23;;;4.63;;
27893;SDS011;15240;50.812;4.792;2022-11-18T05:15:26;15.60;;;4.60;;
27893;SDS011;15240;50.812;4.792;2022-11-18T05:17:52;11.03;;;5.07;;
27893;SDS011;15240;50.812;4.792;2022-11-18T05:20:18;8.67;;;4.83;;
27893;SDS011;15240;50.812;4.792;2022-11-18T05:22:44;8.73;;;4.93;;
27893;SDS011;15240;50.812;4.792;2022-11-18T05:25:10;13.43;;;5.03;;
27893;SDS011;15240;50.812;4.792;2022-11-18T05:27:36;10.00;;;5.10;;
27893;SDS011;15240;50.812;4.792;2022-11-18T05:30:02;17.70;;;5.10;;
27893;SDS011;15240;50.812;4.792;2022-11-18T05:32:28;11.03;;;5.80;;
27893;SDS011;15240;50.812;4.792;2022-11-18T05:34:54;12.20;;;5.87;;
27893;SDS011;15240;50.812;4.792;2022-11-18T05:37:21;11.77;;;5.10;;
27893;SDS011;15240;50.812;4.792;2022-11-18T05:39:47;12.83;;;5.50;;
27893;SDS011;15240;50.812;4.792;2022-11-18T05:42:13;12.43;;;5.93;;
27893;SDS011;15240;50.812;4.792;2022-11-18T05:44:58;13.67;;;6.43;;
27893;SDS011;15240;50.812;4.792;2022-11-18T05:47:24;9.37;;;5.53;;
27893;SDS011;15240;50.812;4.792;2022-11-18T05:49:51;9.17;;;5.77;;
27893;SDS011;15240;50.812;4.792;2022-11-18T05:52:17;15.60;;;5.93;;
27893;SDS011;15240;50.812;4.792;2022-11-18T05:54:44;11.37;;;5.33;;
27893;SDS011;15240;50.812;4.792;2022-11-18T05:57:11;12.30;;;5.67;;
27893;SDS011;15240;50.812;4.792;2022-11-18T05:59:37;10.00;;;5.03;;
27893;SDS011;15240;50.812;4.792;2022-11-18T06:02:05;11.20;;;5.30;;
27893;SDS011;15240;50.812;4.792;2022-11-18T06:04:37;13.20;;;5.47;;
27893;SDS011;15240;50.812;4.792;2022-11-18T06:07:23;10.50;;;4.80;;
27893;SDS011;15240;50.812;4.792;2022-11-18T06:09:53;15.03;;;5.43;;
27893;SDS011;15240;50.812;4.792;2022-11-18T06:12:22;14.60;;;6.10;;
27893;SDS011;15240;50.812;4.792;2022-11-18T06:14:57;15.60;;;5.80;;
27893;SDS011;15240;50.812;4.792;2022-11-18T06:17:26;14.37;;;5.80;;
27893;SDS011;15240;50.812;4.792;2022-11-18T06:19:53;13.57;;;5.33;;
27893;SDS011;15240;50.812;4.792;2022-11-18T06:22:21;13.77;;;5.97;;
27893;SDS011;15240;50.812;4.792;2022-11-18T06:24:47;10.90;;;5.43;;
27893;SDS011;15240;50.812;4.792;2022-11-18T06:27:14;14.90;;;5.70;;
27893;SDS011;15240;50.812;4.792;2022-11-18T06:29:40;11.20;;;5.70;;
27893;SDS011;15240;50.812;4.792;2022-11-18T06:32:06;16.20;;;6.17;;
27893;SDS011;15240;50.812;4.792;2022-11-18T06:34:32;19.83;;;6.27;;
27893;SDS011;15240;50.812;4.792;2022-11-18T06:36:58;10.63;;;5.87;;
27893;SDS011;15240;50.812;4.792;2022-11-18T06:39:24;14.07;;;5.80;;
27893;SDS011;15240;50.812;4.792;2022-11-18T06:41:53;16.13;;;6.37;;
27893;SDS011;15240;50.812;4.792;2022-11-18T06:44:19;13.83;;;6.17;;
27893;SDS011;15240;50.812;4.792;2022-11-18T06:46:45;18.97;;;6.80;;
27893;SDS011;15240;50.812;4.792;2022-11-18T06:49:24;18.73;;;6.30;;
27893;SDS011;15240;50.812;4.792;2022-11-18T06:51:50;11.10;;;5.87;;
27893;SDS011;15240;50.812;4.792;2022-11-18T06:54:16;16.10;;;6.73;;
27893;SDS011;15240;50.812;4.792;2022-11-18T06:56:43;16.03;;;6.60;;
27893;SDS011;15240;50.812;4.792;2022-11-18T06:59:09;18.67;;;6.60;;
27893;SDS011;15240;50.812;4.792;2022-11-18T07:01:36;25.33;;;6.53;;
27893;SDS011;15240;50.812;4.792;2022-11-18T07:04:03;13.57;;;6.10;;
27893;SDS011;15240;50.812;4.792;2022-11-18T07:06:30;16.60;;;6.90;;
27893;SDS011;15240;50.812;4.792;2022-11-18T07:08:58;16.13;;;6.43;;
27893;SDS011;15240;50.812;4.792;2022-11-18T07:11:24;16.57;;;6.50;;
27893;SDS011;15240;50.812;4.792;2022-11-18T07:13:51;15.00;;;6.90;;
27893;SDS011;15240;50.812;4.792;2022-11-18T07:16:18;15.83;;;7.57;;
27893;SDS011;15240;50.812;4.792;2022-11-18T07:18:45;14.07;;;6.43;;
27893;SDS011;15240;50.812;4.792;2022-11-18T07:21:15;15.13;;;7.20;;
27893;SDS011;15240;50.812;4.792;2022-11-18T07:23:41;24.70;;;7.20;;
27893;SDS011;15240;50.812;4.792;2022-11-18T07:26:08;15.33;;;7.13;;
27893;SDS011;15240;50.812;4.792;2022-11-18T07:28:34;16.20;;;7.57;;
27893;SDS011;15240;50.812;4.792;2022-11-18T07:31:01;16.80;;;6.70;;
27893;SDS011;15240;50.812;4.792;2022-11-18T07:33:27;57.00;;;9.60;;
27893;SDS011;15240;50.812;4.792;2022-11-18T07:35:53;17.17;;;6.53;;
27893;SDS011;15240;50.812;4.792;2022-11-18T07:38:20;27.47;;;7.23;;
27893;SDS011;15240;50.812;4.792;2022-11-18T07:40:46;26.30;;;7.27;;
27893;SDS011;15240;50.812;4.792;2022-11-18T07:43:12;19.73;;;6.97;;
27893;SDS011;15240;50.812;4.792;2022-11-18T07:45:38;14.73;;;7.10;;
27893;SDS011;15240;50.812;4.792;2022-11-18T07:48:04;15.97;;;7.10;;
27893;SDS011;15240;50.812;4.792;2022-11-18T07:50:31;13.60;;;6.10;;
27893;SDS011;15240;50.812;4.792;2022-11-18T07:52:57;15.23;;;5.73;;
27893;SDS011;15240;50.812;4.792;2022-11-18T07:55:23;12.27;;;4.87;;
27893;SDS011;15240;50.812;4.792;2022-11-18T07:57:49;10.30;;;4.87;;
27893;SDS011;15240;50.812;4.792;2022-11-18T08:00:15;9.83;;;4.67;;
27893;SDS011;15240;50.812;4.792;2022-11-18T08:02:41;12.53;;;4.53;;
27893;SDS011;15240;50.812;4.792;2022-11-18T08:05:08;10.57;;;4.17;;
27893;SDS011;15240;50.812;4.792;2022-11-18T08:07:34;8.87;;;3.97;;
27893;SDS011;15240;50.812;4.792;2022-11-18T08:10:00;13.87;;;4.13;;
27893;SDS011;15240;50.812;4.792;2022-11-18T08:12:29;9.33;;;3.70;;
27893;SDS011;15240;50.812;4.792;2022-11-18T08:14:55;8.60;;;4.00;;
27893;SDS011;15240;50.812;4.792;2022-11-18T08:17:22;16.20;;;4.47;;
27893;SDS011;15240;50.812;4.792;2022-11-18T08:19:48;9.90;;;3.70;;
27893;SDS011;15240;50.812;4.792;2022-11-18T08:22:14;15.93;;;4.37;;
27893;SDS011;15240;50.812;4.792;2022-11-18T08:24:44;13.07;;;4.30;;
27893;SDS011;15240;50.812;4.792;2022-11-18T08:27:11;50.27;;;5.90;;
27893;SDS011;15240;50.812;4.792;2022-11-18T08:29:38;10.27;;;4.10;;
27893;SDS011;15240;50.812;4.792;2022-11-18T08:32:04;10.47;;;4.17;;
27893;SDS011;15240;50.812;4.792;2022-11-18T08:34:30;9.27;;;4.37;;
27893;SDS011;15240;50.812;4.792;2022-11-18T08:36:56;9.10;;;4.37;;
27893;SDS011;15240;50.812;4.792;2022-11-18T08:39:22;11.00;;;4.63;;
27893;SDS011;15240;50.812;4.792;2022-11-18T08:41:48;9.17;;;4.63;;
27893;SDS011;15240;50.812;4.792;2022-11-18T08:44:15;9.17;;;4.83;;
27893;SDS011;15240;50.812;4.792;2022-11-18T08:46:41;10.53;;;4.70;;
27893;SDS011;15240;50.812;4.792;2022-11-18T08:49:09;15.87;;;4.87;;
27893;SDS011;15240;50.812;4.792;2022-11-18T08:51:35;10.50;;;5.07;;
27893;SDS011;15240;50.812;4.792;2022-11-18T08:54:01;11.87;;;4.57;;
27893;SDS011;15240;50.812;4.792;2022-11-18T08:56:28;11.77;;;5.13;;
27893;SDS011;15240;50.812;4.792;2022-11-18T08:58:54;10.67;;;4.13;;
27893;SDS011;15240;50.812;4.792;2022-11-18T09:01:20;10.30;;;4.27;;
27893;SDS011;15240;50.812;4.792;2022-11-18T09:03:46;11.53;;;5.20;;
27893;SDS011;15240;50.812;4.792;2022-11-18T09:06:17;11.27;;;4.83;;
27893;SDS011;15240;50.812;4.792;2022-11-18T09:08:43;11.53;;;4.67;;
27893;SDS011;15240;50.812;4.792;2022-11-18T09:11:11;11.67;;;4.73;;
27893;SDS011;15240;50.812;4.792;2022-11-18T09:13:37;9.83;;;4.33;;
27893;SDS011;15240;50.812;4.792;2022-11-18T09:16:03;8.63;;;4.23;;
27893;SDS011;15240;50.812;4.792;2022-11-18T09:18:30;10.80;;;4.30;;
27893;SDS011;15240;50.812;4.792;2022-11-18T09:20:56;13.30;;;4.43;;
27893;SDS011;15240;50.812;4.792;2022-11-18T09:23:22;14.53;;;4.27;;
27893;SDS011;15240;50.812;4.792;2022-11-18T09:25:55;9.10;;;3.97;;
27893;SDS011;15240;50.812;4.792;2022-11-18T09:28:21;12.40;;;4.43;;
27893;SDS011;15240;50.812;4.792;2022-11-18T09:30:47;9.10;;;4.23;;
27893;SDS011;15240;50.812;4.792;2022-11-18T09:33:13;11.77;;;4.10;;
27893;SDS011;15240;50.812;4.792;2022-11-18T09:35:41;9.80;;;4.10;;
27893;SDS011;15240;50.812;4.792;2022-11-18T09:38:08;13.17;;;4.40;;
27893;SDS011;15240;50.812;4.792;2022-11-18T09:48:46;12.30;;;3.80;;
27893;SDS011;15240;50.812;4.792;2022-11-18T09:51:33;9.67;;;3.60;;
27893;SDS011;15240;50.812;4.792;2022-11-18T09:54:03;10.77;;;3.77;;
27893;SDS011;15240;50.812;4.792;2022-11-18T09:56:29;12.10;;;3.50;;
27893;SDS011;15240;50.812;4.792;2022-11-18T09:58:55;12.57;;;3.50;;
27893;SDS011;15240;50.812;4.792;2022-11-18T10:01:21;8.63;;;3.53;;
27893;SDS011;15240;50.812;4.792;2022-11-18T10:03:48;9.67;;;3.60;;
27893;SDS011;15240;50.812;4.792;2022-11-18T10:06:19;9.97;;;3.43;;
27893;SDS011;15240;50.812;4.792;2022-11-18T10:14:30;11.10;;;3.40;;
27893;SDS011;15240;50.812;4.792;2022-11-18T10:19:56;6.37;;;2.90;;
27893;SDS011;15240;50.812;4.792;2022-11-18T10:25:06;6.13;;;3.07;;
27893;SDS011;15240;50.812;4.792;2022-11-18T10:27:40;5.57;;;3.13;;
27893;SDS011;15240;50.812;4.792;2022-11-18T10:30:25;10.03;;;3.20;;
27893;SDS011;15240;50.812;4.792;2022-11-18T10:32:55;14.67;;;3.30;;
27893;SDS011;15240;50.812;4.792;2022-11-18T10:35:23;13.80;;;3.23;;
27893;SDS011;15240;50.812;4.792;2022-11-18T10:37:57;10.10;;;3.00;;
27893;SDS011;15240;50.812;4.792;2022-11-18T10:40:27;7.10;;;2.60;;
27893;SDS011;15240;50.812;4.792;2022-11-18T10:42:53;8.50;;;2.50;;
27893;SDS011;15240;50.812;4.792;2022-11-18T10:45:24;7.87;;;2.43;;
27893;SDS011;15240;50.812;4.792;2022-11-18T10:50:30;9.00;;;2.17;;
27893;SDS011;15240;50.812;4.792;2022-11-18T10:52:56;11.87;;;2.20;;
27893;SDS011;15240;50.812;4.792;2022-11-18T10:55:23;6.63;;;1.90;;
27893;SDS011;15240;50.812;4.792;2022-11-18T10:57:51;8.53;;;2.37;;
27893;SDS011;15240;50.812;4.792;2022-11-18T11:02:59;4.73;;;1.87;;
27893;SDS011;15240;50.812;4.792;2022-11-18T11:05:25;5.83;;;1.90;;
27893;SDS011;15240;50.812;4.792;2022-11-18T11:08:02;6.50;;;1.83;;
27893;SDS011;15240;50.812;4.792;2022-11-18T11:10:29;5.47;;;1.70;;
27893;SDS011;15240;50.812;4.792;2022-11-18T11:12:59;7.20;;;1.97;;
27893;SDS011;15240;50.812;4.792;2022-11-18T11:15:34;3.27;;;1.70;;
27893;SDS011;15240;50.812;4.792;2022-11-18T11:18:02;7.23;;;1.83;;
27893;SDS011;15240;50.812;4.792;2022-11-18T11:20:48;5.00;;;1.80;;
27893;SDS011;15240;50.812;4.792;2022-11-18T11:23:16;4.17;;;1.70;;
27893;SDS011;15240;50.812;4.792;2022-11-18T11:25:43;3.63;;;1.47;;
27893;SDS011;15240;50.812;4.792;2022-11-18T11:31:17;6.13;;;1.57;;
27893;SDS011;15240;50.812;4.792;2022-11-18T11:36:27;4.77;;;1.73;;
27893;SDS011;15240;50.812;4.792;2022-11-18T11:49:56;4.50;;;1.87;;
27893;SDS011;15240;50.812;4.792;2022-11-18T11:52:29;9.37;;;2.27;;
27893;SDS011;15240;50.812;4.792;2022-11-18T11:55:00;9.27;;;2.70;;
27893;SDS011;15240;50.812;4.792;2022-11-18T12:00:00;11.00;;;2.17;;
27893;SDS011;15240;50.812;4.792;2022-11-18T12:08:20;6.23;;;1.67;;
27893;SDS011;15240;50.812;4.792;2022-11-18T12:10:49;6.77;;;2.20;;
27893;SDS011;15240;50.812;4.792;2022-11-18T12:16:09;7.03;;;1.87;;
27893;SDS011;15240;50.812;4.792;2022-11-18T12:26:49;4.23;;;1.60;;
27893;SDS011;15240;50.812;4.792;2022-11-18T12:31:51;6.13;;;1.90;;
27893;SDS011;15240;50.812;4.792;2022-11-18T12:36:49;4.80;;;1.67;;
27893;SDS011;15240;50.812;4.792;2022-11-18T12:41:52;12.23;;;2.10;;
27893;SDS011;15240;50.812;4.792;2022-11-18T12:44:37;7.57;;;2.10;;
27893;SDS011;15240;50.812;4.792;2022-11-18T12:47:07;5.77;;;2.17;;
27893;SDS011;15240;50.812;4.792;2022-11-18T12:52:03;6.77;;;2.57;;
27893;SDS011;15240;50.812;4.792;2022-11-18T12:54:45;6.90;;;2.23;;
27893;SDS011;15240;50.812;4.792;2022-11-18T12:57:20;8.10;;;2.23;;
27893;SDS011;15240;50.812;4.792;2022-11-18T12:59:46;6.13;;;2.30;;
27893;SDS011;15240;50.812;4.792;2022-11-18T13:02:17;7.87;;;2.27;;
27893;SDS011;15240;50.812;4.792;2022-11-18T13:04:43;5.43;;;1.90;;
27893;SDS011;15240;50.812;4.792;2022-11-18T13:07:10;7.93;;;2.50;;
27893;SDS011;15240;50.812;4.792;2022-11-18T13:09:56;5.93;;;2.23;;
27893;SDS011;15240;50.812;4.792;2022-11-18T13:12:26;7.00;;;2.20;;
27893;SDS011;15240;50.812;4.792;2022-11-18T13:14:53;5.23;;;2.23;;
27893;SDS011;15240;50.812;4.792;2022-11-18T13:17:41;5.00;;;2.23;;
27893;SDS011;15240;50.812;4.792;2022-11-18T13:22:59;5.80;;;2.00;;
27893;SDS011;15240;50.812;4.792;2022-11-18T13:25:44;11.37;;;3.00;;
27893;SDS011;15240;50.812;4.792;2022-11-18T13:30:49;7.50;;;2.30;;
27893;SDS011;15240;50.812;4.792;2022-11-18T13:33:17;4.03;;;1.90;;
27893;SDS011;15240;50.812;4.792;2022-11-18T13:35:43;6.20;;;1.80;;
27893;SDS011;15240;50.812;4.792;2022-11-18T13:38:17;9.67;;;2.10;;
27893;SDS011;15240;50.812;4.792;2022-11-18T13:40:44;5.23;;;1.90;;
27893;SDS011;15240;50.812;4.792;2022-11-18T13:43:31;6.20;;;2.23;;
27893;SDS011;15240;50.812;4.792;2022-11-18T13:45:58;7.87;;;2.70;;
27893;SDS011;15240;50.812;4.792;2022-11-18T13:48:25;6.20;;;2.70;;
27893;SDS011;15240;50.812;4.792;2022-11-18T13:50:52;5.67;;;2.23;;
27893;SDS011;15240;50.812;4.792;2022-11-18T13:56:31;8.83;;;2.37;;
27893;SDS011;15240;50.812;4.792;2022-11-18T13:58:41;7.53;;;2.33;;
27893;SDS011;15240;50.812;4.792;2022-11-18T14:01:16;5.80;;;2.10;;
27893;SDS011;15240;50.812;4.792;2022-11-18T14:12:20;13.03;;;3.00;;
27893;SDS011;15240;50.812;4.792;2022-11-18T14:14:35;15.63;;;3.23;;
27893;SDS011;15240;50.812;4.792;2022-11-18T14:17:02;10.60;;;2.50;;
27893;SDS011;15240;50.812;4.792;2022-11-18T14:19:29;10.50;;;2.70;;
27893;SDS011;15240;50.812;4.792;2022-11-18T14:22:03;6.80;;;2.40;;
27893;SDS011;15240;50.812;4.792;2022-11-18T14:24:29;5.13;;;2.23;;
27893;SDS011;15240;50.812;4.792;2022-11-18T14:26:56;9.17;;;2.90;;
27893;SDS011;15240;50.812;4.792;2022-11-18T14:29:22;8.57;;;2.70;;
27893;SDS011;15240;50.812;4.792;2022-11-18T14:34:33;7.23;;;2.83;;
27893;SDS011;15240;50.812;4.792;2022-11-18T14:36:59;9.87;;;2.80;;
27893;SDS011;15240;50.812;4.792;2022-11-18T14:39:25;8.30;;;3.17;;
27893;SDS011;15240;50.812;4.792;2022-11-18T14:41:52;14.30;;;3.27;;
27893;SDS011;15240;50.812;4.792;2022-11-18T14:44:18;10.17;;;3.13;;
27893;SDS011;15240;50.812;4.792;2022-11-18T14:46:49;7.93;;;3.20;;
27893;SDS011;15240;50.812;4.792;2022-11-18T14:49:20;8.27;;;3.17;;
27893;SDS011;15240;50.812;4.792;2022-11-18T14:51:46;9.67;;;3.20;;
27893;SDS011;15240;50.812;4.792;2022-11-18T14:54:13;9.87;;;3.43;;
27893;SDS011;15240;50.812;4.792;2022-11-18T14:56:39;10.10;;;3.53;;
27893;SDS011;15240;50.812;4.792;2022-11-18T14:59:14;10.17;;;3.30;;
27893;SDS011;15240;50.812;4.792;2022-11-18T15:01:40;8.27;;;3.10;;
27893;SDS011;15240;50.812;4.792;2022-11-18T15:04:06;10.70;;;3.27;;
27893;SDS011;15240;50.812;4.792;2022-11-18T15:06:33;6.97;;;2.90;;
27893;SDS011;15240;50.812;4.792;2022-11-18T15:08:59;8.13;;;3.50;;
27893;SDS011;15240;50.812;4.792;2022-11-18T15:11:25;9.63;;;3.47;;
27893;SDS011;15240;50.812;4.792;2022-11-18T15:13:51;9.33;;;3.23;;
27893;SDS011;15240;50.812;4.792;2022-11-18T15:18:44;10.10;;;3.47;;
27893;SDS011;15240;50.812;4.792;2022-11-18T15:21:11;10.37;;;3.33;;
27893;SDS011;15240;50.812;4.792;2022-11-18T15:23:37;8.10;;;3.20;;
27893;SDS011;15240;50.812;4.792;2022-11-18T15:26:15;10.07;;;3.33;;
27893;SDS011;15240;50.812;4.792;2022-11-18T15:28:43;9.10;;;3.67;;
27893;SDS011;15240;50.812;4.792;2022-11-18T15:31:09;11.57;;;3.60;;
27893;SDS011;15240;50.812;4.792;2022-11-18T15:33:35;11.30;;;4.00;;
27893;SDS011;15240;50.812;4.792;2022-11-18T15:36:01;10.67;;;3.23;;
27893;SDS011;15240;50.812;4.792;2022-11-18T15:38:27;10.87;;;3.30;;
27893;SDS011;15240;50.812;4.792;2022-11-18T15:40:53;9.63;;;3.17;;
27893;SDS011;15240;50.812;4.792;2022-11-18T15:43:19;8.77;;;3.63;;
27893;SDS011;15240;50.812;4.792;2022-11-18T15:45:45;12.57;;;3.67;;
27893;SDS011;15240;50.812;4.792;2022-11-18T15:48:11;8.53;;;3.63;;
27893;SDS011;15240;50.812;4.792;2022-11-18T15:50:37;13.27;;;5.00;;
27893;SDS011;15240;50.812;4.792;2022-11-18T15:53:03;14.30;;;6.03;;
27893;SDS011;15240;50.812;4.792;2022-11-18T15:55:30;12.37;;;5.73;;
27893;SDS011;15240;50.812;4.792;2022-11-18T15:57:56;15.47;;;6.30;;
27893;SDS011;15240;50.812;4.792;2022-11-18T16:00:22;15.13;;;5.77;;
27893;SDS011;15240;50.812;4.792;2022-11-18T16:02:48;16.17;;;6.97;;
27893;SDS011;15240;50.812;4.792;2022-11-18T16:05:14;16.40;;;7.27;;
27893;SDS011;15240;50.812;4.792;2022-11-18T16:07:40;14.53;;;6.80;;
27893;SDS011;15240;50.812;4.792;2022-11-18T16:10:07;13.63;;;6.00;;
27893;SDS011;15240;50.812;4.792;2022-11-18T16:12:52;11.70;;;4.97;;
27893;SDS011;15240;50.812;4.792;2022-11-18T16:15:18;11.47;;;4.57;;
27893;SDS011;15240;50.812;4.792;2022-11-18T16:18:03;12.03;;;4.67;;
27893;SDS011;15240;50.812;4.792;2022-11-18T16:20:29;8.73;;;4.50;;
27893;SDS011;15240;50.812;4.792;2022-11-18T16:22:55;13.43;;;4.40;;
27893;SDS011;15240;50.812;4.792;2022-11-18T16:25:22;9.20;;;4.00;;
27893;SDS011;15240;50.812;4.792;2022-11-18T16:27:48;11.70;;;4.73;;
27893;SDS011;15240;50.812;4.792;2022-11-18T16:30:15;13.27;;;4.80;;
27893;SDS011;15240;50.812;4.792;2022-11-18T16:32:59;11.73;;;4.80;;
27893;SDS011;15240;50.812;4.792;2022-11-18T16:35:26;15.57;;;6.00;;
27893;SDS011;15240;50.812;4.792;2022-11-18T16:37:52;15.23;;;6.83;;
27893;SDS011;15240;50.812;4.792;2022-11-18T16:40:18;13.50;;;6.13;;
27893;SDS011;15240;50.812;4.792;2022-11-18T16:42:48;15.80;;;6.47;;
27893;SDS011;15240;50.812;4.792;2022-11-18T16:45:14;13.10;;;5.17;;